createdAt,value
2019-04-21T00:00:55.181Z,101329.92
2019-04-21T00:03:32.766Z,101335.66
2019-04-21T00:06:15.647Z,101327.78
2019-04-21T00:08:52.215Z,101332.87
2019-04-21T00:11:22.596Z,101335.91
2019-04-21T00:13:52.402Z,101337.25
2019-04-21T00:16:19.212Z,101335.25
2019-04-21T00:19:07.137Z,101331.79
2019-04-21T00:21:40.464Z,101331.34
2019-04-21T00:24:24.248Z,101325.67
2019-04-21T00:27:04.208Z,101337.54
2019-04-21T00:29:38.466Z,101332.38
2019-04-21T00:32:08.656Z,101332.36
2019-04-21T00:34:25.749Z,101334.78
2019-04-21T00:37:11.255Z,101335.60
2019-04-21T00:42:22.711Z,101335.73
2019-04-21T00:44:59.157Z,101336.77
2019-04-21T00:47:34.546Z,101338.61
2019-04-21T00:50:07.587Z,101346.58
2019-04-21T00:52:52.567Z,101345.32
2019-04-21T00:55:29.417Z,101340.95
2019-04-21T00:57:58.075Z,101334.32
2019-04-21T01:00:27.734Z,101341.70
2019-04-21T01:03:03.302Z,101339.19
2019-04-21T01:05:42.796Z,101338.69
2019-04-21T01:08:09.376Z,101337.57
2019-04-21T01:10:34.740Z,101336.64
2019-04-21T01:13:23.393Z,101340.09
2019-04-21T01:15:53.000Z,101340.75
2019-04-21T01:18:21.786Z,101339.34
2019-04-21T01:20:36.390Z,101340.95
2019-04-21T01:23:08.458Z,101345.05
2019-04-21T01:25:50.068Z,101344.81
2019-04-21T01:28:29.299Z,101338.45
2019-04-21T01:31:11.101Z,101340.67
2019-04-21T01:33:49.029Z,101337.70
2019-04-21T01:36:14.472Z,101339.52
2019-04-21T01:39:11.979Z,101338.66
2019-04-21T01:41:25.506Z,101334.35
2019-04-21T01:43:57.873Z,101337.37
2019-04-21T01:46:25.660Z,101331.31
2019-04-21T01:48:56.997Z,101332.22
2019-04-21T01:51:45.374Z,101333.08
2019-04-21T01:54:33.245Z,101335.73
2019-04-21T01:57:01.951Z,101334.83
2019-04-21T01:59:30.630Z,101336.98
2019-04-21T02:02:10.754Z,101340.34
2019-04-21T02:04:54.282Z,101330.08
2019-04-21T02:07:20.846Z,101337.59
2019-04-21T02:09:51.216Z,101333.77
2019-04-21T02:12:26.675Z,101333.34
2019-04-21T02:15:07.974Z,101334.64
2019-04-21T02:17:31.044Z,101334.96
2019-04-21T02:20:00.590Z,101332.67
2019-04-21T02:22:57.484Z,101331.87
2019-04-21T02:25:16.573Z,101336.30
2019-04-21T02:27:49.904Z,101339.84
2019-04-21T02:33:26.128Z,101340.95
2019-04-21T02:35:52.747Z,101338.28
2019-04-21T02:38:32.127Z,101341.77
2019-04-21T02:40:46.606Z,101339.16
2019-04-21T02:43:20.595Z,101346.63
2019-04-21T02:45:56.186Z,101342.81
2019-04-21T02:48:28.583Z,101344.59
2019-04-21T02:50:49.970Z,101344.20
2019-04-21T02:53:47.811Z,101346.73
2019-04-21T02:56:13.852Z,101343.91
2019-04-21T03:01:37.798Z,101342.67
2019-04-21T03:06:53.765Z,101346.41
2019-04-21T03:09:40.357Z,101347.36
2019-04-21T03:12:07.020Z,101354.55
2019-04-21T03:14:48.396Z,101348.33
2019-04-21T03:17:06.788Z,101348.95
2019-04-21T03:29:59.297Z,101354.02
2019-04-21T03:37:36.899Z,101358.79
2019-04-21T03:45:23.382Z,101360.69
2019-04-21T03:47:53.158Z,101357.22
2019-04-21T03:50:27.347Z,101355.59
2019-04-21T03:53:03.477Z,101351.80
2019-04-21T03:58:23.968Z,101344.05
2019-04-21T04:01:05.995Z,101343.43
2019-04-21T04:14:12.932Z,101340.99
2019-04-21T04:16:38.048Z,101336.97
2019-04-21T04:19:37.888Z,101343.72
2019-04-21T04:29:33.012Z,101330.09
2019-04-21T04:32:04.941Z,101334.87
2019-04-21T04:40:10.667Z,101316.52
2019-04-21T04:45:28.283Z,101326.02
2019-04-21T04:47:36.984Z,101321.63
2019-04-21T04:50:06.764Z,101323.70
2019-04-21T04:55:19.210Z,101313.14
2019-04-21T04:57:59.279Z,101309.34
2019-04-21T05:00:34.594Z,101313.48
2019-04-21T05:03:01.025Z,101311.75
2019-04-21T05:06:28.595Z,101318.66
2019-04-21T05:11:46.703Z,101316.91
2019-04-21T05:14:03.129Z,101324.73
2019-04-21T05:24:05.982Z,101324.55
2019-04-21T05:26:36.304Z,101328.03
2019-04-21T05:29:10.529Z,101331.89
2019-04-21T05:32:14.053Z,101328.52
2019-04-21T05:34:31.860Z,101331.15
2019-04-21T05:37:14.251Z,101330.99
2019-04-21T05:39:49.273Z,101335.75
2019-04-21T05:42:25.025Z,101337.47
2019-04-21T05:45:12.323Z,101343.52
2019-04-21T05:47:58.472Z,101340.98
2019-04-21T05:50:27.521Z,101345.21
2019-04-21T05:52:58.595Z,101347.80
2019-04-21T05:55:46.007Z,101345.93
2019-04-21T05:58:11.277Z,101348.66
2019-04-21T06:03:43.063Z,101351.48
2019-04-21T06:08:53.972Z,101354.70
2019-04-21T06:11:21.059Z,101356.38
2019-04-21T06:13:57.545Z,101356.21
2019-04-21T06:16:30.234Z,101359.49
2019-04-21T06:19:03.407Z,101359.27
2019-04-21T06:21:40.513Z,101360.12
2019-04-21T06:24:13.100Z,101355.97
2019-04-21T06:26:59.929Z,101351.63
2019-04-21T06:29:28.569Z,101354.50
2019-04-21T06:32:29.545Z,101355.78
2019-04-21T06:34:49.641Z,101350.31
2019-04-21T06:37:35.956Z,101350.12
2019-04-21T06:42:18.627Z,101357.21
2019-04-21T06:44:57.221Z,101352.36
2019-04-21T06:47:47.369Z,101350.48
2019-04-21T06:50:20.689Z,101358.28
2019-04-21T06:52:56.227Z,101363.03
2019-04-21T06:55:20.308Z,101352.00
2019-04-21T06:58:00.685Z,101352.00
2019-04-21T07:00:34.809Z,101354.75
2019-04-21T07:03:17.444Z,101352.25
2019-04-21T07:05:53.022Z,101352.30
2019-04-21T07:08:29.390Z,101352.30
2019-04-21T07:10:51.789Z,101354.94
2019-04-21T07:13:29.059Z,101348.27
2019-04-21T07:16:07.177Z,101338.13
2019-04-21T07:18:42.467Z,101350.17
2019-04-21T07:21:09.571Z,101345.52
2019-04-21T07:23:45.984Z,101356.33
2019-04-21T07:26:19.424Z,101355.73
2019-04-21T07:28:56.865Z,101360.89
2019-04-21T07:31:33.964Z,101354.55
2019-04-21T07:34:22.654Z,101349.38
2019-04-21T07:36:45.044Z,101361.82
2019-04-21T07:39:15.300Z,101368.41
2019-04-21T07:41:43.797Z,101362.28
2019-04-21T07:44:16.990Z,101361.60
2019-04-21T07:46:44.075Z,101357.53
2019-04-21T07:49:41.493Z,101347.52
2019-04-21T07:52:44.691Z,101346.84
2019-04-21T07:55:20.252Z,101336.02
2019-04-21T07:57:39.549Z,101339.75
2019-04-21T08:00:36.862Z,101348.61
2019-04-21T08:03:12.889Z,101347.39
2019-04-21T08:05:39.183Z,101359.62
2019-04-21T08:08:05.986Z,101350.00
2019-04-21T08:10:41.579Z,101346.95
2019-04-21T08:13:28.806Z,101350.25
2019-04-21T08:15:52.807Z,101340.09
2019-04-21T08:18:30.096Z,101350.19
2019-04-21T08:21:00.800Z,101352.57
2019-04-21T08:23:37.131Z,101348.59
2019-04-21T08:26:07.724Z,101330.30
2019-04-21T08:28:56.431Z,101331.61
2019-04-21T08:31:32.309Z,101347.49
2019-04-21T08:34:08.239Z,101344.93
2019-04-21T08:36:35.621Z,101340.53
2019-04-21T08:39:13.183Z,101340.10
2019-04-21T08:41:43.950Z,101333.30
2019-04-21T08:44:20.507Z,101330.45
2019-04-21T08:46:52.571Z,101333.64
2019-04-21T08:49:26.596Z,101333.45
2019-04-21T08:52:13.750Z,101346.05
2019-04-21T08:54:43.972Z,101344.67
2019-04-21T08:57:46.448Z,101342.11
2019-04-21T09:00:12.560Z,101337.79
2019-04-21T09:03:01.773Z,101338.61
2019-04-21T09:05:29.724Z,101340.97
2019-04-21T09:08:05.291Z,101348.33
2019-04-21T09:10:39.621Z,101350.53
2019-04-21T09:13:10.182Z,101338.28
2019-04-21T09:15:47.986Z,101336.05
2019-04-21T09:18:18.808Z,101338.23
2019-04-21T09:21:02.670Z,101331.53
2019-04-21T09:23:36.437Z,101334.84
2019-04-21T09:26:14.172Z,101337.86
2019-04-21T09:28:39.612Z,101335.17
2019-04-21T09:31:05.303Z,101331.69
2019-04-21T09:33:46.721Z,101327.67
2019-04-21T09:36:18.023Z,101327.80
2019-04-21T09:38:58.694Z,101328.55
2019-04-21T09:41:24.258Z,101333.38
2019-04-21T09:43:59.739Z,101322.30
2019-04-21T09:46:43.263Z,101325.58
2019-04-21T09:49:15.634Z,101327.34
2019-04-21T09:51:47.966Z,101328.14
2019-04-21T09:54:45.839Z,101323.55
2019-04-21T09:57:24.299Z,101338.89
2019-04-21T09:59:55.759Z,101331.76
2019-04-21T10:02:34.231Z,101333.82
2019-04-21T10:04:57.355Z,101325.44
2019-04-21T10:07:34.994Z,101316.70
2019-04-21T10:10:10.773Z,101325.84
2019-04-21T10:12:43.938Z,101318.48
2019-04-21T10:15:16.539Z,101321.55
2019-04-21T10:17:49.971Z,101327.47
2019-04-21T10:20:22.481Z,101323.96
2019-04-21T10:22:59.419Z,101314.59
2019-04-21T10:25:34.575Z,101321.19
2019-04-21T10:28:10.949Z,101325.95
2019-04-21T10:30:46.796Z,101315.83
2019-04-21T10:33:19.589Z,101316.73
2019-04-21T10:35:50.942Z,101303.12
2019-04-21T10:38:33.281Z,101311.98
2019-04-21T10:41:03.388Z,101306.84
2019-04-21T10:43:37.491Z,101306.97
2019-04-21T10:46:12.917Z,101310.74
2019-04-21T10:48:46.348Z,101326.55
2019-04-21T10:51:21.121Z,101313.67
2019-04-21T10:53:55.978Z,101310.34
2019-04-21T10:56:36.373Z,101303.29
2019-04-21T10:59:05.225Z,101299.29
2019-04-21T11:01:37.009Z,101291.27
2019-04-21T11:04:26.933Z,101280.77
2019-04-21T11:06:58.276Z,101281.68
2019-04-21T11:09:29.542Z,101290.99
2019-04-21T11:12:04.070Z,101285.44
2019-04-21T11:14:37.296Z,101283.01
2019-04-21T11:17:12.597Z,101278.45
2019-04-21T11:19:44.228Z,101275.66
2019-04-21T11:22:23.070Z,101267.27
2019-04-21T11:24:56.660Z,101273.48
2019-04-21T11:27:28.837Z,101271.95
2019-04-21T11:30:02.254Z,101257.15
2019-04-21T11:32:37.179Z,101248.30
2019-04-21T11:35:09.651Z,101269.41
2019-04-21T11:37:42.103Z,101260.91
2019-04-21T11:40:17.623Z,101252.41
2019-04-21T11:42:51.452Z,101255.41
2019-04-21T11:45:34.739Z,101248.81
2019-04-21T11:48:14.375Z,101253.16
2019-04-21T11:50:50.945Z,101244.95
2019-04-21T11:53:25.238Z,101238.22
2019-04-21T11:55:59.140Z,101236.86
2019-04-21T11:58:34.058Z,101239.97
2019-04-21T12:01:07.692Z,101238.52
2019-04-21T12:03:43.574Z,101245.66
2019-04-21T12:06:15.524Z,101235.28
2019-04-21T12:08:50.830Z,101241.59
2019-04-21T12:11:23.269Z,101239.81
2019-04-21T12:13:56.233Z,101236.92
2019-04-21T12:16:28.757Z,101240.84
2019-04-21T12:19:02.757Z,101229.97
2019-04-21T12:21:47.893Z,101229.69
2019-04-21T12:24:09.033Z,101217.37
2019-04-21T12:26:42.206Z,101217.16
2019-04-21T12:29:14.632Z,101225.81
2019-04-21T12:32:07.604Z,101229.98
2019-04-21T12:34:39.793Z,101223.03
2019-04-21T12:37:17.079Z,101223.97
2019-04-21T12:39:50.621Z,101221.45
2019-04-21T12:42:24.870Z,101219.64
2019-04-21T12:44:57.218Z,101222.58
2019-04-21T12:47:30.198Z,101210.10
2019-04-21T12:50:02.753Z,101214.34
2019-04-21T12:52:36.028Z,101220.25
2019-04-21T12:55:09.339Z,101214.52
2019-04-21T12:57:41.543Z,101217.22
2019-04-21T13:00:15.286Z,101218.90
2019-04-21T13:02:47.753Z,101212.51
2019-04-21T13:05:19.968Z,101219.36
2019-04-21T13:07:51.783Z,101223.11
2019-04-21T13:10:24.282Z,101217.83
2019-04-21T13:12:57.009Z,101209.63
2019-04-21T13:15:29.354Z,101211.95
2019-04-21T13:18:02.593Z,101208.48
2019-04-21T13:20:36.364Z,101208.80
2019-04-21T13:23:08.143Z,101211.98
2019-04-21T13:25:39.785Z,101208.67
2019-04-21T13:28:14.526Z,101208.08
2019-04-21T13:30:48.595Z,101213.64
2019-04-21T13:33:21.057Z,101207.80
2019-04-21T13:36:02.841Z,101213.19
2019-04-21T13:38:49.213Z,101212.61
2019-04-21T13:41:31.411Z,101213.79
2019-04-21T13:43:50.858Z,101223.71
2019-04-21T13:46:24.937Z,101205.47
2019-04-21T13:48:56.778Z,101210.22
2019-04-21T13:51:31.174Z,101206.83
2019-04-21T13:54:07.426Z,101199.63
2019-04-21T13:56:40.723Z,101200.16
2019-04-21T13:59:14.032Z,101199.77
2019-04-21T14:01:47.688Z,101205.98
2019-04-21T14:04:23.374Z,101204.08
2019-04-21T14:06:56.396Z,101211.38
2019-04-21T14:09:40.410Z,101197.43
2019-04-21T14:12:05.451Z,101210.55
2019-04-21T14:14:38.534Z,101204.56
2019-04-21T14:17:11.241Z,101208.84
2019-04-21T14:19:45.611Z,101214.06
2019-04-21T14:22:20.629Z,101215.67
2019-04-21T14:24:54.159Z,101223.17
2019-04-21T14:27:26.004Z,101211.59
2019-04-21T14:30:00.710Z,101205.22
2019-04-21T14:32:38.056Z,101204.96
2019-04-21T14:35:10.929Z,101201.89
2019-04-21T14:37:44.578Z,101205.36
2019-04-21T14:40:22.511Z,101216.66
2019-04-21T14:42:54.046Z,101203.19
2019-04-21T14:45:30.978Z,101200.72
2019-04-21T14:48:09.209Z,101209.22
2019-04-21T14:50:48.334Z,101207.75
2019-04-21T14:53:23.782Z,101198.16
2019-04-21T14:55:59.448Z,101207.31
2019-04-21T14:58:32.938Z,101201.15
2019-04-21T15:01:08.618Z,101200.78
2019-04-21T15:03:39.591Z,101192.64
2019-04-21T15:06:13.521Z,101194.55
2019-04-21T15:08:47.137Z,101195.92
2019-04-21T15:11:22.164Z,101189.52
2019-04-21T15:13:53.785Z,101186.16
2019-04-21T15:16:25.328Z,101191.03
2019-04-21T15:18:59.159Z,101192.92
2019-04-21T15:21:40.601Z,101191.27
2019-04-21T15:24:18.330Z,101195.88
2019-04-21T15:26:52.541Z,101189.95
2019-04-21T15:29:24.631Z,101192.35
2019-04-21T15:31:58.697Z,101191.43
2019-04-21T15:34:31.872Z,101190.00
2019-04-21T15:37:08.226Z,101197.06
2019-04-21T15:39:51.460Z,101196.75
2019-04-21T15:42:32.656Z,101193.19
2019-04-21T15:45:12.669Z,101193.05
2019-04-21T15:47:47.667Z,101197.73
2019-04-21T15:50:26.505Z,101199.72
2019-04-21T15:53:01.434Z,101198.41
2019-04-21T15:55:48.655Z,101201.75
2019-04-21T15:58:35.047Z,101198.09
2019-04-21T16:01:16.489Z,101202.48
2019-04-21T16:03:52.509Z,101203.64
2019-04-21T16:06:25.686Z,101202.50
2019-04-21T16:09:06.118Z,101209.23
2019-04-21T16:11:39.937Z,101206.63
2019-04-21T16:14:14.478Z,101210.66
2019-04-21T16:16:47.456Z,101209.81
2019-04-21T16:19:20.803Z,101212.12
2019-04-21T16:21:52.906Z,101213.48
2019-04-21T16:24:27.466Z,101217.34
2019-04-21T16:27:04.863Z,101221.11
2019-04-21T16:29:39.821Z,101216.93
2019-04-21T16:32:14.617Z,101220.34
2019-04-21T16:34:55.703Z,101221.27
2019-04-21T16:37:21.649Z,101222.47
2019-04-21T16:39:59.069Z,101228.20
2019-04-21T16:42:32.157Z,101228.93
2019-04-21T16:45:07.290Z,101235.45
2019-04-21T16:47:40.226Z,101232.87
2019-04-21T16:50:13.977Z,101239.63
2019-04-21T16:52:49.921Z,101234.44
2019-04-21T16:55:41.466Z,101233.78
2019-04-21T16:58:28.930Z,101237.33
2019-04-21T17:01:08.306Z,101230.64
2019-04-21T17:03:37.420Z,101240.45
2019-04-21T17:06:13.264Z,101239.69
2019-04-21T17:08:47.043Z,101241.02
2019-04-21T17:11:25.703Z,101242.48
2019-04-21T17:13:54.237Z,101239.31
2019-04-21T17:16:48.314Z,101235.95
2019-04-21T17:19:13.584Z,101235.95
2019-04-21T17:21:37.628Z,101252.50
2019-04-21T17:24:10.655Z,101253.59
2019-04-21T17:26:46.044Z,101255.55
2019-04-21T17:29:18.766Z,101257.48
2019-04-21T17:31:53.294Z,101263.41
2019-04-21T17:34:29.347Z,101271.66
2019-04-21T17:37:03.497Z,101270.65
2019-04-21T17:39:40.711Z,101277.80
2019-04-21T17:42:27.521Z,101270.91
2019-04-21T17:44:51.043Z,101277.18
2019-04-21T17:47:39.417Z,101276.97
2019-04-21T17:50:07.666Z,101268.20
2019-04-21T17:52:53.939Z,101275.27
2019-04-21T17:55:28.301Z,101271.44
2019-04-21T17:58:21.690Z,101270.84
2019-04-21T18:01:10.873Z,101265.58
2019-04-21T18:03:46.177Z,101265.58
2019-04-21T18:06:07.455Z,101274.81
2019-04-21T18:08:50.677Z,101273.58
2019-04-21T18:11:15.388Z,101282.02
2019-04-21T18:13:39.573Z,101280.70
2019-04-21T18:16:23.002Z,101279.38
2019-04-21T18:18:46.632Z,101280.87
2019-04-21T18:21:20.951Z,101283.67
2019-04-21T18:24:05.764Z,101289.33
2019-04-21T18:26:41.809Z,101288.86
2019-04-21T18:29:03.471Z,101282.48
2019-04-21T18:31:44.817Z,101290.95
2019-04-21T18:34:17.832Z,101287.84
2019-04-21T18:36:57.523Z,101293.80
2019-04-21T18:39:59.981Z,101292.38
2019-04-21T18:42:42.221Z,101290.29
2019-04-21T18:48:04.851Z,101290.73
2019-04-21T18:50:45.849Z,101292.22
2019-04-21T18:53:41.429Z,101288.00
2019-04-21T18:56:05.271Z,101289.86
2019-04-21T18:58:38.159Z,101288.38
2019-04-21T19:01:18.263Z,101286.25
2019-04-21T19:03:50.081Z,101290.05
2019-04-21T19:06:43.132Z,101289.66
2019-04-21T19:09:14.300Z,101291.95
2019-04-21T19:11:53.486Z,101292.38
2019-04-21T19:14:39.366Z,101285.20
2019-04-21T19:17:48.548Z,101290.52
2019-04-21T19:20:07.426Z,101283.92
2019-04-21T19:22:33.005Z,101279.92
2019-04-21T19:25:13.100Z,101285.32
2019-04-21T19:27:50.279Z,101287.31
2019-04-21T19:30:36.632Z,101285.19
2019-04-21T19:33:06.917Z,101282.34
2019-04-21T19:35:23.593Z,101289.52
2019-04-21T19:38:06.667Z,101290.42
2019-04-21T19:40:52.253Z,101286.94
2019-04-21T19:43:31.483Z,101290.16
2019-04-21T19:46:04.531Z,101285.05
2019-04-21T19:48:44.470Z,101290.03
2019-04-21T19:51:15.164Z,101292.27
2019-04-21T19:53:44.607Z,101294.61
2019-04-21T19:56:14.144Z,101294.14
2019-04-21T19:58:51.256Z,101300.91
2019-04-21T20:01:25.489Z,101297.73
2019-04-21T20:04:02.937Z,101297.98
2019-04-21T20:06:52.271Z,101301.71
2019-04-21T20:09:37.041Z,101304.61
2019-04-21T20:12:13.139Z,101305.14
2019-04-21T20:14:57.640Z,101303.02
2019-04-21T20:17:18.850Z,101309.20
2019-04-21T20:19:40.303Z,101304.86
2019-04-21T20:22:14.863Z,101303.30
2019-04-21T20:25:00.166Z,101306.72
2019-04-21T20:27:38.848Z,101302.77
2019-04-21T20:30:21.880Z,101306.56
2019-04-21T20:32:56.596Z,101302.05
2019-04-21T20:35:43.348Z,101304.75
2019-04-21T20:37:59.119Z,101310.20
2019-04-21T20:40:30.911Z,101302.78
2019-04-21T20:43:19.322Z,101310.02
2019-04-21T20:45:56.334Z,101314.34
2019-04-21T20:48:13.789Z,101316.05
2019-04-21T20:51:01.928Z,101306.56
2019-04-21T20:53:33.009Z,101313.56
2019-04-21T20:56:04.702Z,101321.39
2019-04-21T20:58:45.181Z,101322.24
2019-04-21T21:03:56.124Z,101322.38
2019-04-21T21:06:26.060Z,101318.11
2019-04-21T21:09:01.356Z,101319.86
2019-04-21T21:11:29.347Z,101320.86
2019-04-21T21:14:14.636Z,101322.70
2019-04-21T21:16:47.701Z,101325.42
2019-04-21T21:19:23.617Z,101325.92
2019-04-21T21:21:49.700Z,101331.19
2019-04-21T21:24:33.217Z,101330.69
2019-04-21T21:26:58.109Z,101327.12
2019-04-21T21:29:45.179Z,101332.27
2019-04-21T21:32:15.190Z,101331.23
2019-04-21T21:34:40.995Z,101336.45
2019-04-21T21:37:21.621Z,101335.05
2019-04-21T21:39:57.246Z,101340.46
2019-04-21T21:42:08.086Z,101333.80
2019-04-21T21:44:49.525Z,101329.93
2019-04-21T21:47:27.991Z,101327.80
2019-04-21T21:50:01.241Z,101327.92
2019-04-21T21:52:36.701Z,101336.03
2019-04-21T21:54:55.995Z,101342.08
2019-04-21T21:57:32.959Z,101337.88
2019-04-21T22:00:04.737Z,101344.25
2019-04-21T22:02:45.339Z,101337.30
2019-04-21T22:05:16.794Z,101337.78
2019-04-21T22:07:46.602Z,101341.13
2019-04-21T22:10:20.111Z,101341.52
2019-04-21T22:13:02.281Z,101338.02
2019-04-21T22:15:32.017Z,101337.03
2019-04-21T22:18:24.701Z,101335.58
2019-04-21T22:20:55.161Z,101328.12
2019-04-21T22:23:12.995Z,101331.48
2019-04-21T22:25:43.906Z,101338.37
2019-04-21T22:28:15.738Z,101331.01
2019-04-21T22:30:51.830Z,101336.27
2019-04-21T22:33:25.902Z,101345.17
2019-04-21T22:36:09.846Z,101349.36
2019-04-21T22:38:47.734Z,101344.23
2019-04-21T22:41:18.921Z,101340.30
2019-04-21T22:43:44.392Z,101339.07
2019-04-21T22:46:15.448Z,101328.23
2019-04-21T22:48:53.172Z,101339.31
2019-04-21T22:51:30.174Z,101344.17
2019-04-21T22:53:57.534Z,101342.62
2019-04-21T22:56:32.026Z,101338.87
2019-04-21T22:59:04.230Z,101334.21
2019-04-21T23:01:41.289Z,101329.34
2019-04-21T23:04:10.686Z,101331.63
2019-04-21T23:06:44.522Z,101331.76
2019-04-21T23:09:16.958Z,101332.06
2019-04-21T23:11:52.600Z,101334.14
2019-04-21T23:14:23.744Z,101335.41
2019-04-21T23:17:14.951Z,101340.90
2019-04-21T23:19:43.770Z,101337.81
2019-04-21T23:22:21.467Z,101340.64
2019-04-21T23:25:00.503Z,101340.34
2019-04-21T23:27:23.292Z,101345.41
2019-04-21T23:30:09.755Z,101352.52
2019-04-21T23:32:31.892Z,101353.89
2019-04-21T23:34:54.022Z,101349.30
2019-04-21T23:37:26.096Z,101351.45
2019-04-21T23:40:03.755Z,101351.19
2019-04-21T23:42:38.002Z,101349.69
2019-04-21T23:45:09.189Z,101348.95
2019-04-21T23:48:00.672Z,101356.14
2019-04-21T23:50:30.467Z,101354.34
2019-04-21T23:52:53.482Z,101356.97
2019-04-21T23:55:25.409Z,101358.66
2019-04-21T23:58:07.129Z,101359.97
